EmailTwitter


Surface observations / Quebec / CYSC

Regions: Quebec | Canada | USA | Europe | France | UK | Elsewhere
Station
Display
Info & Location for CYSC | Help decoding METAR

Weather Conditions observed on 2018/05/26 at 20:00 UTC at SHERBROOKE, QB (CYSC)

Sky conditions: clear.

Temperature: 23.0 Celsius.

Dewpoint: 3.0 Celsius.

Relative Humidity: 27%

Humidex: 22.

Winds: Northwest at 19 km/h or 10 knots.

Mean Sea level Pressure: 101.06 kilopascals.

Altimeter Setting (QNH): 101.05 kilopascals or 29.84 inches of mercury.

Horizontal visibility: 9.00 statute miles or 14.40 kilometers.

Coded METAR:

CYSC 262000Z AUTO 33010KT 9SM CLR 23/03 A2984 RMK SLP106 DENSITY ALT 1900FT=